sensor_id;sensor_type;location;lat;lon;timestamp;pressure;altitude;pressure_sealevel;temperature;humidity
79242;BME280;68670;48.720;9.118;2023-04-24T00:01:07;95855.66;;;9.34;81.83
79242;BME280;68670;48.720;9.118;2023-04-24T00:03:34;95851.22;;;9.28;81.49
79242;BME280;68670;48.720;9.118;2023-04-24T00:06:02;95848.50;;;9.28;81.64
79242;BME280;68670;48.720;9.118;2023-04-24T00:08:27;95859.41;;;9.28;82.78
79242;BME280;68670;48.720;9.118;2023-04-24T00:10:55;95868.75;;;9.32;81.40
79242;BME280;68670;48.720;9.118;2023-04-24T00:13:23;95858.94;;;9.36;80.46
79242;BME280;68670;48.720;9.118;2023-04-24T00:15:53;95855.59;;;9.29;81.66
79242;BME280;68670;48.720;9.118;2023-04-24T00:18:18;95858.28;;;9.24;82.10
79242;BME280;68670;48.720;9.118;2023-04-24T00:20:48;95858.38;;;9.34;80.07
79242;BME280;68670;48.720;9.118;2023-04-24T00:23:13;95869.31;;;9.34;81.33
79242;BME280;68670;48.720;9.118;2023-04-24T00:25:39;95863.28;;;9.32;79.63
79242;BME280;68670;48.720;9.118;2023-04-24T00:28:06;95871.53;;;9.42;79.76
79242;BME280;68670;48.720;9.118;2023-04-24T00:30:34;95881.41;;;9.43;80.19
79242;BME280;68670;48.720;9.118;2023-04-24T00:32:59;95876.22;;;9.42;80.10
79242;BME280;68670;48.720;9.118;2023-04-24T00:35:28;95870.59;;;9.59;78.15
79242;BME280;68670;48.720;9.118;2023-04-24T00:37:57;95866.22;;;9.58;78.46
79242;BME280;68670;48.720;9.118;2023-04-24T00:40:23;95866.25;;;9.63;77.71
79242;BME280;68670;48.720;9.118;2023-04-24T00:42:48;95860.44;;;9.54;77.82
79242;BME280;68670;48.720;9.118;2023-04-24T00:45:13;95864.53;;;9.52;79.04
79242;BME280;68670;48.720;9.118;2023-04-24T00:47:41;95850.91;;;9.57;77.63
79242;BME280;68670;48.720;9.118;2023-04-24T00:50:07;95850.34;;;9.55;77.84
79242;BME280;68670;48.720;9.118;2023-04-24T00:52:32;95850.81;;;9.47;78.99
79242;BME280;68670;48.720;9.118;2023-04-24T00:54:58;95851.34;;;9.43;80.73
79242;BME280;68670;48.720;9.118;2023-04-24T00:57:24;95850.75;;;9.36;81.36
79242;BME280;68670;48.720;9.118;2023-04-24T00:59:51;95846.41;;;9.40;80.49
79242;BME280;68670;48.720;9.118;2023-04-24T01:02:17;95839.56;;;9.43;79.73
79242;BME280;68670;48.720;9.118;2023-04-24T01:04:45;95844.09;;;9.59;78.09
79242;BME280;68670;48.720;9.118;2023-04-24T01:07:13;95839.97;;;9.57;78.12
79242;BME280;68670;48.720;9.118;2023-04-24T01:09:40;95837.19;;;9.52;79.00
79242;BME280;68670;48.720;9.118;2023-04-24T01:12:08;95840.47;;;9.54;79.10
79242;BME280;68670;48.720;9.118;2023-04-24T01:14:36;95825.69;;;9.50;79.69
79242;BME280;68670;48.720;9.118;2023-04-24T01:17:02;95831.19;;;9.55;79.06
79242;BME280;68670;48.720;9.118;2023-04-24T01:19:31;95829.28;;;9.55;79.44
79242;BME280;68670;48.720;9.118;2023-04-24T01:22:01;95833.41;;;9.58;80.66
79242;BME280;68670;48.720;9.118;2023-04-24T01:24:28;95830.97;;;9.61;79.43
79242;BME280;68670;48.720;9.118;2023-04-24T01:26:53;95829.03;;;9.57;79.79
79242;BME280;68670;48.720;9.118;2023-04-24T01:29:19;95826.84;;;9.59;79.07
79242;BME280;68670;48.720;9.118;2023-04-24T01:31:47;95829.59;;;9.59;78.59
79242;BME280;68670;48.720;9.118;2023-04-24T01:34:15;95823.00;;;9.55;79.68
79242;BME280;68670;48.720;9.118;2023-04-24T01:36:42;95817.53;;;9.55;79.62
79242;BME280;68670;48.720;9.118;2023-04-24T01:39:10;95815.53;;;9.45;80.38
79242;BME280;68670;48.720;9.118;2023-04-24T01:41:37;95831.66;;;9.41;81.35
79242;BME280;68670;48.720;9.118;2023-04-24T01:44:03;95829.47;;;9.43;80.36
79242;BME280;68670;48.720;9.118;2023-04-24T01:46:29;95820.75;;;9.41;80.61
79242;BME280;68670;48.720;9.118;2023-04-24T01:48:55;95804.25;;;9.31;81.62
79242;BME280;68670;48.720;9.118;2023-04-24T01:51:21;95808.53;;;9.22;82.09
79242;BME280;68670;48.720;9.118;2023-04-24T01:53:46;95815.19;;;9.31;81.37
79242;BME280;68670;48.720;9.118;2023-04-24T01:56:12;95812.41;;;9.26;82.10
79242;BME280;68670;48.720;9.118;2023-04-24T01:58:39;95812.44;;;9.31;81.64
79242;BME280;68670;48.720;9.118;2023-04-24T02:01:15;95806.41;;;9.29;82.02
79242;BME280;68670;48.720;9.118;2023-04-24T02:03:47;95820.88;;;9.25;82.90
79242;BME280;68670;48.720;9.118;2023-04-24T02:06:15;95821.63;;;9.20;82.83
79242;BME280;68670;48.720;9.118;2023-04-24T02:08:42;95823.63;;;9.30;81.78
79242;BME280;68670;48.720;9.118;2023-04-24T02:11:11;95824.94;;;9.22;82.59
79242;BME280;68670;48.720;9.118;2023-04-24T02:13:36;95822.72;;;9.19;83.70
79242;BME280;68670;48.720;9.118;2023-04-24T02:16:07;95833.75;;;9.29;82.08
79242;BME280;68670;48.720;9.118;2023-04-24T02:18:36;95814.47;;;9.14;82.64
79242;BME280;68670;48.720;9.118;2023-04-24T02:21:02;95816.63;;;9.07;82.82
79242;BME280;68670;48.720;9.118;2023-04-24T02:23:27;95816.06;;;9.05;84.16
79242;BME280;68670;48.720;9.118;2023-04-24T02:25:53;95814.97;;;9.06;82.31
79242;BME280;68670;48.720;9.118;2023-04-24T02:28:20;95809.53;;;9.11;82.33
79242;BME280;68670;48.720;9.118;2023-04-24T02:30:48;95810.59;;;9.05;83.59
79242;BME280;68670;48.720;9.118;2023-04-24T02:33:16;95819.56;;;9.00;83.86
79242;BME280;68670;48.720;9.118;2023-04-24T02:35:43;95822.00;;;8.97;84.45
79242;BME280;68670;48.720;9.118;2023-04-24T02:38:09;95816.38;;;9.08;82.41
79242;BME280;68670;48.720;9.118;2023-04-24T02:40:34;95828.13;;;9.09;83.06
79242;BME280;68670;48.720;9.118;2023-04-24T02:43:02;95833.59;;;9.09;82.97
79242;BME280;68670;48.720;9.118;2023-04-24T02:45:29;95824.00;;;9.06;83.76
79242;BME280;68670;48.720;9.118;2023-04-24T02:47:59;95829.47;;;9.06;84.66
79242;BME280;68670;48.720;9.118;2023-04-24T02:50:25;95828.13;;;9.09;83.75
79242;BME280;68670;48.720;9.118;2023-04-24T02:52:50;95829.22;;;9.08;84.59
79242;BME280;68670;48.720;9.118;2023-04-24T02:55:15;95822.03;;;9.02;84.61
79242;BME280;68670;48.720;9.118;2023-04-24T02:57:43;95820.97;;;9.03;83.40
79242;BME280;68670;48.720;9.118;2023-04-24T03:00:09;95824.06;;;9.17;82.29
79242;BME280;68670;48.720;9.118;2023-04-24T03:02:34;95816.13;;;9.15;83.05
79242;BME280;68670;48.720;9.118;2023-04-24T03:05:04;95807.09;;;9.09;84.23
79242;BME280;68670;48.720;9.118;2023-04-24T03:07:30;95809.47;;;9.01;84.82
79242;BME280;68670;48.720;9.118;2023-04-24T03:10:04;95804.53;;;8.98;85.07
79242;BME280;68670;48.720;9.118;2023-04-24T03:12:33;95794.22;;;9.10;83.11
79242;BME280;68670;48.720;9.118;2023-04-24T03:15:00;95803.00;;;9.12;84.10
79242;BME280;68670;48.720;9.118;2023-04-24T03:17:31;95803.69;;;8.97;84.85
79242;BME280;68670;48.720;9.118;2023-04-24T03:19:56;95803.50;;;9.04;84.00
79242;BME280;68670;48.720;9.118;2023-04-24T03:22:23;95801.91;;;9.13;83.04
79242;BME280;68670;48.720;9.118;2023-04-24T03:24:48;95791.22;;;9.06;83.67
79242;BME280;68670;48.720;9.118;2023-04-24T03:27:14;95796.91;;;9.00;84.22
79242;BME280;68670;48.720;9.118;2023-04-24T03:29:39;95789.22;;;8.97;84.67
79242;BME280;68670;48.720;9.118;2023-04-24T03:32:07;95795.25;;;8.99;83.71
79242;BME280;68670;48.720;9.118;2023-04-24T03:34:34;95791.91;;;8.92;84.48
79242;BME280;68670;48.720;9.118;2023-04-24T03:37:00;95797.31;;;8.87;85.55
79242;BME280;68670;48.720;9.118;2023-04-24T03:39:28;95798.66;;;8.84;85.21
79242;BME280;68670;48.720;9.118;2023-04-24T03:41:53;95792.88;;;8.81;86.15
79242;BME280;68670;48.720;9.118;2023-04-24T03:44:18;95797.75;;;8.73;84.93
79242;BME280;68670;48.720;9.118;2023-04-24T03:46:44;95785.69;;;8.69;85.25
79242;BME280;68670;48.720;9.118;2023-04-24T03:49:09;95782.91;;;8.64;85.20
79242;BME280;68670;48.720;9.118;2023-04-24T03:51:39;95778.47;;;8.58;85.90
79242;BME280;68670;48.720;9.118;2023-04-24T03:54:04;95777.88;;;8.51;86.08
79242;BME280;68670;48.720;9.118;2023-04-24T03:56:32;95785.84;;;8.58;85.15
79242;BME280;68670;48.720;9.118;2023-04-24T03:58:59;95786.94;;;8.57;84.91
79242;BME280;68670;48.720;9.118;2023-04-24T04:01:25;95794.34;;;8.61;84.64
79242;BME280;68670;48.720;9.118;2023-04-24T04:03:50;95797.06;;;8.61;84.88
79242;BME280;68670;48.720;9.118;2023-04-24T04:06:18;95793.22;;;8.57;85.32
79242;BME280;68670;48.720;9.118;2023-04-24T04:08:46;95807.94;;;8.56;85.61
79242;BME280;68670;48.720;9.118;2023-04-24T04:11:14;95801.97;;;8.59;85.69
79242;BME280;68670;48.720;9.118;2023-04-24T04:13:41;95797.44;;;8.70;84.72
79242;BME280;68670;48.720;9.118;2023-04-24T04:16:09;95815.72;;;8.69;84.35
79242;BME280;68670;48.720;9.118;2023-04-24T04:18:34;95819.38;;;8.80;83.78
79242;BME280;68670;48.720;9.118;2023-04-24T04:21:00;95825.19;;;8.89;82.16
79242;BME280;68670;48.720;9.118;2023-04-24T04:23:27;95833.84;;;8.81;83.39
79242;BME280;68670;48.720;9.118;2023-04-24T04:25:53;95846.47;;;8.87;82.76
79242;BME280;68670;48.720;9.118;2023-04-24T04:28:21;95877.63;;;8.91;83.87
79242;BME280;68670;48.720;9.118;2023-04-24T04:30:46;95895.03;;;8.85;83.07
79242;BME280;68670;48.720;9.118;2023-04-24T04:33:12;95895.69;;;8.43;82.62
79242;BME280;68670;48.720;9.118;2023-04-24T04:35:38;95900.13;;;8.11;83.10
79242;BME280;68670;48.720;9.118;2023-04-24T04:38:03;95891.50;;;7.80;84.36
79242;BME280;68670;48.720;9.118;2023-04-24T04:40:29;95888.56;;;7.65;86.40
79242;BME280;68670;48.720;9.118;2023-04-24T04:42:55;95890.88;;;7.56;85.87
79242;BME280;68670;48.720;9.118;2023-04-24T04:45:20;95897.00;;;7.47;88.01
79242;BME280;68670;48.720;9.118;2023-04-24T04:47:46;95891.69;;;7.57;86.05
79242;BME280;68670;48.720;9.118;2023-04-24T04:50:15;95891.69;;;7.57;85.97
79242;BME280;68670;48.720;9.118;2023-04-24T04:52:41;95899.88;;;7.57;85.07
79242;BME280;68670;48.720;9.118;2023-04-24T04:55:06;95904.06;;;7.48;87.49
79242;BME280;68670;48.720;9.118;2023-04-24T04:57:32;95909.03;;;7.51;86.84
79242;BME280;68670;48.720;9.118;2023-04-24T05:00:00;95903.56;;;7.51;87.29
79242;BME280;68670;48.720;9.118;2023-04-24T05:02:26;95907.53;;;7.60;85.31
79242;BME280;68670;48.720;9.118;2023-04-24T05:04:51;95915.63;;;7.55;86.11
79242;BME280;68670;48.720;9.118;2023-04-24T05:07:16;95914.47;;;7.51;85.75
79242;BME280;68670;48.720;9.118;2023-04-24T05:09:42;95915.31;;;7.51;86.18
79242;BME280;68670;48.720;9.118;2023-04-24T05:12:09;95924.53;;;7.50;86.64
79242;BME280;68670;48.720;9.118;2023-04-24T05:14:35;95923.72;;;7.50;86.73
79242;BME280;68670;48.720;9.118;2023-04-24T05:17:00;95927.28;;;7.50;86.29
79242;BME280;68670;48.720;9.118;2023-04-24T05:19:25;95935.28;;;7.57;85.93
79242;BME280;68670;48.720;9.118;2023-04-24T05:21:51;95945.69;;;7.60;85.93
79242;BME280;68670;48.720;9.118;2023-04-24T05:24:16;95941.06;;;7.60;87.91
79242;BME280;68670;48.720;9.118;2023-04-24T05:26:41;95951.72;;;7.62;86.24
79242;BME280;68670;48.720;9.118;2023-04-24T05:29:07;95953.28;;;7.58;86.78
79242;BME280;68670;48.720;9.118;2023-04-24T05:31:32;95957.75;;;7.64;85.73
79242;BME280;68670;48.720;9.118;2023-04-24T05:33:57;95965.34;;;7.62;86.83
79242;BME280;68670;48.720;9.118;2023-04-24T05:36:23;95965.34;;;7.62;85.74
79242;BME280;68670;48.720;9.118;2023-04-24T05:38:48;95970.16;;;7.71;85.58
79242;BME280;68670;48.720;9.118;2023-04-24T05:41:13;95964.38;;;7.68;87.06
79242;BME280;68670;48.720;9.118;2023-04-24T05:43:39;95976.28;;;7.79;85.70
79242;BME280;68670;48.720;9.118;2023-04-24T05:46:08;95975.50;;;7.83;84.88
79242;BME280;68670;48.720;9.118;2023-04-24T05:48:34;95973.25;;;7.80;82.55
79242;BME280;68670;48.720;9.118;2023-04-24T05:50:59;95979.81;;;7.79;84.82
79242;BME280;68670;48.720;9.118;2023-04-24T05:53:24;95980.88;;;7.78;83.69
79242;BME280;68670;48.720;9.118;2023-04-24T05:55:50;95980.31;;;7.76;85.04
79242;BME280;68670;48.720;9.118;2023-04-24T05:58:15;95985.19;;;7.74;84.80
79242;BME280;68670;48.720;9.118;2023-04-24T06:00:40;95991.13;;;7.71;85.93
79242;BME280;68670;48.720;9.118;2023-04-24T06:03:11;95993.50;;;7.67;87.59
79242;BME280;68670;48.720;9.118;2023-04-24T06:05:39;96002.59;;;7.73;87.04
79242;BME280;68670;48.720;9.118;2023-04-24T06:08:06;95991.94;;;7.71;86.14
79242;BME280;68670;48.720;9.118;2023-04-24T06:10:32;96002.03;;;7.71;86.66
79242;BME280;68670;48.720;9.118;2023-04-24T06:13:00;95999.22;;;7.66;87.09
79242;BME280;68670;48.720;9.118;2023-04-24T06:15:29;95999.13;;;7.61;87.55
79242;BME280;68670;48.720;9.118;2023-04-24T06:17:58;96000.88;;;7.67;86.42
79242;BME280;68670;48.720;9.118;2023-04-24T06:20:24;95998.56;;;7.75;84.19
79242;BME280;68670;48.720;9.118;2023-04-24T06:22:49;95998.63;;;7.81;84.17
79242;BME280;68670;48.720;9.118;2023-04-24T06:25:15;95989.78;;;7.90;83.20
79242;BME280;68670;48.720;9.118;2023-04-24T06:27:40;95985.50;;;7.94;82.59
79242;BME280;68670;48.720;9.118;2023-04-24T06:30:09;95992.78;;;8.05;81.30
79242;BME280;68670;48.720;9.118;2023-04-24T06:32:35;95993.59;;;8.06;82.92
79242;BME280;68670;48.720;9.118;2023-04-24T06:35:03;95995.13;;;8.19;81.75
79242;BME280;68670;48.720;9.118;2023-04-24T06:37:29;95992.69;;;8.34;81.50
79242;BME280;68670;48.720;9.118;2023-04-24T06:39:54;95992.94;;;8.32;83.66
79242;BME280;68670;48.720;9.118;2023-04-24T06:42:19;95996.09;;;8.46;80.15
79242;BME280;68670;48.720;9.118;2023-04-24T06:44:48;95991.22;;;8.48;81.58
79242;BME280;68670;48.720;9.118;2023-04-24T06:47:14;95992.44;;;8.57;80.22
79242;BME280;68670;48.720;9.118;2023-04-24T06:49:39;95982.75;;;8.66;79.32
79242;BME280;68670;48.720;9.118;2023-04-24T06:52:05;95998.72;;;8.80;80.05
79242;BME280;68670;48.720;9.118;2023-04-24T06:54:31;95999.56;;;9.02;78.52
79242;BME280;68670;48.720;9.118;2023-04-24T06:56:57;95994.16;;;9.07;75.88
79242;BME280;68670;48.720;9.118;2023-04-24T06:59:25;95993.44;;;9.17;77.56
79242;BME280;68670;48.720;9.118;2023-04-24T07:01:51;95991.19;;;9.35;74.77
79242;BME280;68670;48.720;9.118;2023-04-24T07:04:16;95999.59;;;9.56;74.92
79242;BME280;68670;48.720;9.118;2023-04-24T07:06:42;96001.81;;;9.59;73.65
79242;BME280;68670;48.720;9.118;2023-04-24T07:09:08;95991.69;;;9.59;74.38
79242;BME280;68670;48.720;9.118;2023-04-24T07:11:36;95995.16;;;9.50;74.39
79242;BME280;68670;48.720;9.118;2023-04-24T07:14:03;95993.44;;;9.43;73.39
79242;BME280;68670;48.720;9.118;2023-04-24T07:16:28;96000.88;;;9.48;74.40
79242;BME280;68670;48.720;9.118;2023-04-24T07:18:55;96014.19;;;9.39;72.43
79242;BME280;68670;48.720;9.118;2023-04-24T07:21:20;96018.09;;;9.22;71.47
79242;BME280;68670;48.720;9.118;2023-04-24T07:23:45;96028.38;;;9.15;73.29
79242;BME280;68670;48.720;9.118;2023-04-24T07:26:11;96022.00;;;9.04;72.19
79242;BME280;68670;48.720;9.118;2023-04-24T07:28:38;96024.66;;;8.99;73.37
79242;BME280;68670;48.720;9.118;2023-04-24T07:31:04;96022.94;;;8.93;72.51
79242;BME280;68670;48.720;9.118;2023-04-24T07:33:31;96026.31;;;9.00;73.17
79242;BME280;68670;48.720;9.118;2023-04-24T07:35:59;96033.53;;;9.11;73.02
79242;BME280;68670;48.720;9.118;2023-04-24T07:38:25;96041.41;;;9.29;72.50
79242;BME280;68670;48.720;9.118;2023-04-24T07:40:51;96032.84;;;9.48;74.03
79242;BME280;68670;48.720;9.118;2023-04-24T07:43:19;96029.16;;;9.59;68.46
79242;BME280;68670;48.720;9.118;2023-04-24T07:45:47;96036.38;;;9.70;68.98
79242;BME280;68670;48.720;9.118;2023-04-24T07:48:13;96034.81;;;9.79;69.63
79242;BME280;68670;48.720;9.118;2023-04-24T07:50:41;96039.13;;;9.75;67.20
79242;BME280;68670;48.720;9.118;2023-04-24T07:53:07;96052.88;;;9.80;65.61
79242;BME280;68670;48.720;9.118;2023-04-24T07:55:35;96062.38;;;9.99;64.93
79242;BME280;68670;48.720;9.118;2023-04-24T07:58:00;96048.63;;;9.94;63.77
79242;BME280;68670;48.720;9.118;2023-04-24T08:00:26;96046.88;;;10.15;64.92
79242;BME280;68670;48.720;9.118;2023-04-24T08:02:53;96051.06;;;10.55;64.16
79242;BME280;68670;48.720;9.118;2023-04-24T08:05:19;96059.59;;;10.63;62.93
79242;BME280;68670;48.720;9.118;2023-04-24T08:07:47;96065.44;;;10.72;63.42
79242;BME280;68670;48.720;9.118;2023-04-24T08:10:15;96061.00;;;10.66;61.27
79242;BME280;68670;48.720;9.118;2023-04-24T08:12:41;96070.78;;;10.57;62.43
79242;BME280;68670;48.720;9.118;2023-04-24T08:15:06;96071.69;;;10.72;61.16
79242;BME280;68670;48.720;9.118;2023-04-24T08:17:34;96076.22;;;10.52;60.50
79242;BME280;68670;48.720;9.118;2023-04-24T08:20:00;96087.34;;;10.35;61.79
79242;BME280;68670;48.720;9.118;2023-04-24T08:22:30;96078.56;;;10.06;57.97
79242;BME280;68670;48.720;9.118;2023-04-24T08:24:59;96086.03;;;10.48;58.52
79242;BME280;68670;48.720;9.118;2023-04-24T08:27:25;96083.81;;;11.39;55.43
79242;BME280;68670;48.720;9.118;2023-04-24T08:29:53;96073.94;;;11.28;55.75
79242;BME280;68670;48.720;9.118;2023-04-24T08:32:20;96078.31;;;12.22;54.86
79242;BME280;68670;48.720;9.118;2023-04-24T08:34:48;96087.38;;;12.53;51.20
79242;BME280;68670;48.720;9.118;2023-04-24T08:37:13;96088.69;;;13.16;50.74
79242;BME280;68670;48.720;9.118;2023-04-24T08:39:38;96083.09;;;13.47;48.54
79242;BME280;68670;48.720;9.118;2023-04-24T08:42:04;96110.31;;;13.43;48.63
79242;BME280;68670;48.720;9.118;2023-04-24T08:44:34;96088.22;;;12.58;51.27
79242;BME280;68670;48.720;9.118;2023-04-24T08:47:02;96106.78;;;11.85;51.94
79242;BME280;68670;48.720;9.118;2023-04-24T08:49:30;96096.69;;;12.36;51.01
79242;BME280;68670;48.720;9.118;2023-04-24T08:51:56;96108.16;;;11.83;52.49
79242;BME280;68670;48.720;9.118;2023-04-24T08:54:21;96106.13;;;11.58;53.18
79242;BME280;68670;48.720;9.118;2023-04-24T08:56:50;96110.94;;;11.30;54.42
79242;BME280;68670;48.720;9.118;2023-04-24T08:59:15;96128.88;;;11.53;53.98
79242;BME280;68670;48.720;9.118;2023-04-24T09:01:41;96112.19;;;11.70;54.10
79242;BME280;68670;48.720;9.118;2023-04-24T09:04:08;96108.53;;;12.52;52.89
79242;BME280;68670;48.720;9.118;2023-04-24T09:06:38;96130.47;;;13.28;52.10
79242;BME280;68670;48.720;9.118;2023-04-24T09:09:07;96128.31;;;12.59;49.43
79242;BME280;68670;48.720;9.118;2023-04-24T09:11:36;96134.03;;;12.02;51.22
79242;BME280;68670;48.720;9.118;2023-04-24T09:14:02;96144.13;;;11.91;52.72
79242;BME280;68670;48.720;9.118;2023-04-24T09:16:28;96145.28;;;12.16;50.37
79242;BME280;68670;48.720;9.118;2023-04-24T09:18:55;96142.59;;;12.31;49.73
79242;BME280;68670;48.720;9.118;2023-04-24T09:21:21;96150.94;;;11.78;51.59
79242;BME280;68670;48.720;9.118;2023-04-24T09:23:57;96158.06;;;11.22;52.15
79242;BME280;68670;48.720;9.118;2023-04-24T09:26:24;96151.63;;;10.64;52.78
79242;BME280;68670;48.720;9.118;2023-04-24T09:28:53;96155.75;;;10.67;53.17
79242;BME280;68670;48.720;9.118;2023-04-24T09:31:19;96148.84;;;10.96;51.00
79242;BME280;68670;48.720;9.118;2023-04-24T09:33:58;96133.78;;;12.29;49.92
79242;BME280;68670;48.720;9.118;2023-04-24T09:38:55;96137.91;;;12.82;43.80
79242;BME280;68670;48.720;9.118;2023-04-24T09:41:25;96143.28;;;13.63;42.77
79242;BME280;68670;48.720;9.118;2023-04-24T09:43:53;96138.06;;;13.62;42.05
79242;BME280;68670;48.720;9.118;2023-04-24T09:46:19;96143.41;;;13.23;42.77
79242;BME280;68670;48.720;9.118;2023-04-24T09:48:44;96150.72;;;13.58;42.19
79242;BME280;68670;48.720;9.118;2023-04-24T09:51:12;96139.78;;;13.37;42.07
79242;BME280;68670;48.720;9.118;2023-04-24T09:53:38;96152.03;;;14.30;41.55
79242;BME280;68670;48.720;9.118;2023-04-24T09:56:08;96144.13;;;13.54;43.94
79242;BME280;68670;48.720;9.118;2023-04-24T09:58:35;96174.44;;;12.67;43.42
79242;BME280;68670;48.720;9.118;2023-04-24T10:01:03;96169.41;;;12.08;44.72
79242;BME280;68670;48.720;9.118;2023-04-24T10:03:33;96173.34;;;12.73;44.98
79242;BME280;68670;48.720;9.118;2023-04-24T10:05:59;96172.19;;;13.61;42.01
79242;BME280;68670;48.720;9.118;2023-04-24T10:08:25;96187.88;;;14.25;42.10
79242;BME280;68670;48.720;9.118;2023-04-24T10:10:52;96162.19;;;14.78;40.20
79242;BME280;68670;48.720;9.118;2023-04-24T10:13:17;96181.69;;;15.50;39.95
79242;BME280;68670;48.720;9.118;2023-04-24T10:15:43;96186.34;;;16.02;37.72
79242;BME280;68670;48.720;9.118;2023-04-24T10:18:11;96159.00;;;15.58;36.12
79242;BME280;68670;48.720;9.118;2023-04-24T10:20:42;96184.00;;;15.38;37.69
79242;BME280;68670;48.720;9.118;2023-04-24T10:23:07;96171.03;;;15.38;36.95
79242;BME280;68670;48.720;9.118;2023-04-24T10:25:38;96190.50;;;15.52;37.69
79242;BME280;68670;48.720;9.118;2023-04-24T10:28:03;96180.06;;;16.21;37.06
79242;BME280;68670;48.720;9.118;2023-04-24T10:30:32;96187.06;;;15.36;37.31
79242;BME280;68670;48.720;9.118;2023-04-24T10:33:04;96182.94;;;15.05;38.57
79242;BME280;68670;48.720;9.118;2023-04-24T10:35:37;96178.94;;;14.48;39.65
79242;BME280;68670;48.720;9.118;2023-04-24T10:38:25;96191.19;;;13.57;41.18
79242;BME280;68670;48.720;9.118;2023-04-24T10:41:22;96190.69;;;13.25;42.78
79242;BME280;68670;48.720;9.118;2023-04-24T10:44:07;96185.03;;;14.45;44.46
79242;BME280;68670;48.720;9.118;2023-04-24T10:46:33;96186.72;;;14.41;41.54
79242;BME280;68670;48.720;9.118;2023-04-24T10:49:04;96183.66;;;13.78;41.35
79242;BME280;68670;48.720;9.118;2023-04-24T10:51:52;96194.28;;;13.30;42.69
79242;BME280;68670;48.720;9.118;2023-04-24T10:54:41;96186.53;;;13.02;43.95
79242;BME280;68670;48.720;9.118;2023-04-24T10:59:52;96206.84;;;12.50;44.41
79242;BME280;68670;48.720;9.118;2023-04-24T11:02:38;96205.66;;;12.00;46.88
79242;BME280;68670;48.720;9.118;2023-04-24T11:05:04;96221.66;;;11.66;46.63
79242;BME280;68670;48.720;9.118;2023-04-24T11:08:09;96206.38;;;11.38;48.33
79242;BME280;68670;48.720;9.118;2023-04-24T11:10:45;96215.13;;;11.30;49.26
79242;BME280;68670;48.720;9.118;2023-04-24T11:13:17;96225.97;;;11.15;49.13
79242;BME280;68670;48.720;9.118;2023-04-24T11:16:41;96234.66;;;11.02;49.12
79242;BME280;68670;48.720;9.118;2023-04-24T11:29:41;96230.63;;;11.99;49.77
79242;BME280;68670;48.720;9.118;2023-04-24T11:32:15;96236.72;;;12.21;48.10
79242;BME280;68670;48.720;9.118;2023-04-24T11:34:46;96235.66;;;12.27;47.46
79242;BME280;68670;48.720;9.118;2023-04-24T11:37:12;96241.75;;;11.77;47.83
79242;BME280;68670;48.720;9.118;2023-04-24T11:39:38;96238.94;;;11.25;48.95
79242;BME280;68670;48.720;9.118;2023-04-24T11:42:03;96259.84;;;10.99;49.80
79242;BME280;68670;48.720;9.118;2023-04-24T11:44:31;96264.38;;;10.56;52.91
79242;BME280;68670;48.720;9.118;2023-04-24T11:46:59;96273.16;;;10.58;51.29
79242;BME280;68670;48.720;9.118;2023-04-24T11:49:24;96267.69;;;10.58;51.48
79242;BME280;68670;48.720;9.118;2023-04-24T11:51:50;96262.00;;;10.65;50.42
79242;BME280;68670;48.720;9.118;2023-04-24T11:54:15;96274.38;;;10.72;49.93
79242;BME280;68670;48.720;9.118;2023-04-24T11:56:47;96268.13;;;11.09;50.03
79242;BME280;68670;48.720;9.118;2023-04-24T11:59:13;96262.03;;;11.34;48.82
79242;BME280;68670;48.720;9.118;2023-04-24T12:01:48;96257.91;;;11.31;49.66
79242;BME280;68670;48.720;9.118;2023-04-24T12:04:15;96270.00;;;11.35;49.72
79242;BME280;68670;48.720;9.118;2023-04-24T12:07:01;96266.59;;;11.23;48.66
79242;BME280;68670;48.720;9.118;2023-04-24T12:09:32;96264.75;;;10.97;49.74
79242;BME280;68670;48.720;9.118;2023-04-24T12:12:06;96276.97;;;10.84;50.62
79242;BME280;68670;48.720;9.118;2023-04-24T12:14:31;96276.56;;;10.70;52.58
79242;BME280;68670;48.720;9.118;2023-04-24T12:16:59;96276.66;;;10.54;51.73
79242;BME280;68670;48.720;9.118;2023-04-24T12:19:29;96283.13;;;10.21;52.25
79242;BME280;68670;48.720;9.118;2023-04-24T12:22:05;96277.50;;;10.10;52.85
79242;BME280;68670;48.720;9.118;2023-04-24T12:24:31;96276.50;;;10.17;52.13
79242;BME280;68670;48.720;9.118;2023-04-24T12:26:57;96271.28;;;10.37;52.28
79242;BME280;68670;48.720;9.118;2023-04-24T12:29:24;96275.84;;;10.53;51.29
79242;BME280;68670;48.720;9.118;2023-04-24T12:31:50;96286.78;;;10.53;51.49
79242;BME280;68670;48.720;9.118;2023-04-24T12:34:20;96275.53;;;10.50;50.95
79242;BME280;68670;48.720;9.118;2023-04-24T12:36:46;96274.28;;;10.62;52.16
79242;BME280;68670;48.720;9.118;2023-04-24T12:39:18;96278.16;;;10.66;50.98
79242;BME280;68670;48.720;9.118;2023-04-24T12:41:56;96276.97;;;10.57;51.47
79242;BME280;68670;48.720;9.118;2023-04-24T12:44:34;96279.16;;;10.55;51.93
79242;BME280;68670;48.720;9.118;2023-04-24T12:47:01;96275.63;;;10.60;53.74
79242;BME280;68670;48.720;9.118;2023-04-24T12:49:31;96286.63;;;10.38;53.02
79242;BME280;68670;48.720;9.118;2023-04-24T12:51:56;96282.13;;;10.27;53.02
79242;BME280;68670;48.720;9.118;2023-04-24T12:54:24;96284.13;;;9.93;54.18
79242;BME280;68670;48.720;9.118;2023-04-24T12:56:52;96280.56;;;9.92;54.57
79242;BME280;68670;48.720;9.118;2023-04-24T12:59:17;96276.44;;;9.90;54.98
79242;BME280;68670;48.720;9.118;2023-04-24T13:01:42;96281.66;;;9.91;54.64
79242;BME280;68670;48.720;9.118;2023-04-24T13:04:08;96278.53;;;9.83;55.02
79242;BME280;68670;48.720;9.118;2023-04-24T13:06:33;96278.34;;;9.89;55.76
79242;BME280;68670;48.720;9.118;2023-04-24T13:09:01;96288.63;;;9.82;57.50
79242;BME280;68670;48.720;9.118;2023-04-24T13:11:26;96299.97;;;9.52;62.35
79242;BME280;68670;48.720;9.118;2023-04-24T13:13:54;96286.75;;;9.27;63.94
79242;BME280;68670;48.720;9.118;2023-04-24T13:16:19;96286.00;;;9.32;68.72
79242;BME280;68670;48.720;9.118;2023-04-24T13:18:45;96278.09;;;9.69;66.56
79242;BME280;68670;48.720;9.118;2023-04-24T13:21:10;96278.78;;;9.81;65.00
79242;BME280;68670;48.720;9.118;2023-04-24T13:23:38;96281.69;;;10.40;62.78
79242;BME280;68670;48.720;9.118;2023-04-24T13:26:03;96278.09;;;11.20;60.47